Decoded Metar for YGFN ( in ) (IATA:) | Meteo·Mobile Aviation Weather
aviador You're here:

YGFN Decoded Metar

in
Report Time2019-02-20 19:00:00
UTC Time2019-02-20 20:06:34
Flight Rules mvfr MVFR
Wind220° at 04 kt
W.Decomp.*RWY 18: 3.1 kt HW 2.6 kt RCW
W.Rank220° ranks 5
Current wind is above 220° avg. (3.5)
Visibility5000 m
Phenomena:N/A
Clouds:Broken 015 Hf
Broken 023 Hf
Broken 034 Hf
Ceiling1,500 ft
Temp21°C
Dew Point21°C (100% RH)
QNH1009 hPa
Raw Report
METAR YGFN 201900Z AUTO 22004KT 5000 // BKN015 BKN023 BKN034 21/21 Q1009=

Extra information for YGFN:More info

Social comments